createdAt,value
2023-04-02T00:00:47.688Z,0.50
2023-04-02T00:01:47.720Z,0.50
2023-04-02T00:02:47.715Z,0.39
2023-04-02T00:03:47.798Z,0.35
2023-04-02T00:04:47.748Z,0.34
2023-04-02T00:05:47.770Z,0.34
2023-04-02T00:06:47.791Z,0.35
2023-04-02T00:07:47.805Z,0.38
2023-04-02T00:08:47.844Z,0.42
2023-04-02T00:09:47.864Z,0.47
2023-04-02T00:10:47.888Z,0.50
2023-04-02T00:11:47.913Z,0.50
2023-04-02T00:12:47.965Z,0.50
2023-04-02T00:13:47.968Z,0.50
2023-04-02T00:14:47.984Z,0.50
2023-04-02T00:15:48.007Z,0.50
2023-04-02T00:16:48.144Z,0.50
2023-04-02T00:17:48.076Z,0.50
2023-04-02T00:18:48.078Z,0.50
2023-04-02T00:19:48.102Z,0.51
2023-04-02T00:20:48.125Z,0.50
2023-04-02T00:21:48.182Z,0.51
2023-04-02T00:22:48.183Z,0.50
2023-04-02T00:23:48.209Z,0.50
2023-04-02T00:24:48.236Z,0.50
2023-04-02T00:25:48.256Z,0.50
2023-04-02T00:26:48.289Z,0.50
2023-04-02T00:27:48.321Z,0.51
2023-04-02T00:28:48.377Z,0.51
2023-04-02T00:29:48.379Z,0.51
2023-04-02T00:30:48.410Z,0.50
2023-04-02T00:31:48.485Z,0.50
2023-04-02T00:32:48.485Z,0.50
2023-04-02T00:33:48.491Z,0.50
2023-04-02T00:34:48.517Z,0.51
2023-04-02T00:35:48.596Z,0.51
2023-04-02T00:36:48.573Z,0.50
2023-04-02T00:37:48.611Z,0.50
2023-04-02T00:38:48.906Z,0.50
2023-04-02T00:39:48.665Z,0.50
2023-04-02T00:40:48.685Z,0.50
2023-04-02T00:41:48.723Z,0.51
2023-04-02T00:42:48.755Z,0.50
2023-04-02T00:43:48.782Z,0.50
2023-04-02T00:44:48.836Z,0.50
2023-04-02T00:45:48.879Z,0.51
2023-04-02T00:46:48.877Z,0.50
2023-04-02T00:47:48.901Z,0.50
2023-04-02T00:48:48.932Z,0.50
2023-04-02T00:49:48.939Z,0.51
2023-04-02T00:50:48.990Z,0.50
2023-04-02T00:51:48.995Z,0.50
2023-04-02T00:52:49.034Z,0.50
2023-04-02T00:53:49.051Z,0.50
2023-04-02T00:54:49.080Z,0.50
2023-04-02T00:55:49.102Z,0.50
2023-04-02T00:56:49.173Z,0.51
2023-04-02T00:57:49.159Z,0.50
2023-04-02T00:58:49.182Z,0.50
2023-04-02T00:59:49.230Z,0.50
2023-04-02T01:00:49.266Z,0.51
2023-04-02T01:01:49.393Z,0.51
2023-04-02T01:02:49.360Z,0.51
2023-04-02T01:03:49.403Z,0.51
2023-04-02T01:04:49.345Z,0.51
2023-04-02T01:05:49.367Z,0.51
2023-04-02T01:06:49.404Z,0.51
2023-04-02T01:07:49.437Z,0.51
2023-04-02T01:08:49.465Z,0.51
2023-04-02T01:09:49.495Z,0.51
2023-04-02T01:10:49.519Z,0.50
2023-04-02T01:11:49.551Z,0.51
2023-04-02T01:12:49.585Z,0.51
2023-04-02T01:13:49.614Z,0.51
2023-04-02T01:14:49.638Z,0.51
2023-04-02T01:15:49.664Z,0.51
2023-04-02T01:16:49.799Z,0.50
2023-04-02T01:17:49.741Z,0.51
2023-04-02T01:18:49.748Z,0.51
2023-04-02T01:19:49.781Z,0.51
2023-04-02T01:20:49.810Z,0.51
2023-04-02T01:21:49.836Z,0.51
2023-04-02T01:22:49.861Z,0.51
2023-04-02T01:23:49.887Z,0.50
2023-04-02T01:24:49.915Z,0.51
2023-04-02T01:25:49.943Z,0.51
2023-04-02T01:26:49.973Z,0.50
2023-04-02T01:27:50.005Z,0.51
2023-04-02T01:28:50.021Z,0.51
2023-04-02T01:29:50.059Z,0.51
2023-04-02T01:30:50.084Z,0.51
2023-04-02T01:31:50.180Z,0.51
2023-04-02T01:32:50.216Z,0.51
2023-04-02T01:33:50.166Z,0.51
2023-04-02T01:34:50.196Z,0.51
2023-04-02T01:35:50.252Z,0.51
2023-04-02T01:36:50.270Z,0.51
2023-04-02T01:37:50.281Z,0.50
2023-04-02T01:38:50.310Z,0.51
2023-04-02T01:39:50.350Z,0.50
2023-04-02T01:40:50.373Z,0.50
2023-04-02T01:41:50.399Z,0.50
2023-04-02T01:42:50.420Z,0.51
2023-04-02T01:43:50.446Z,0.51
2023-04-02T01:44:50.467Z,0.51
2023-04-02T01:45:50.498Z,0.51
2023-04-02T01:46:50.642Z,0.50
2023-04-02T01:47:50.533Z,0.51
2023-04-02T01:48:50.589Z,0.51
2023-04-02T01:49:50.590Z,0.50
2023-04-02T01:50:50.624Z,0.50
2023-04-02T01:51:50.660Z,0.51
2023-04-02T01:52:50.672Z,0.51
2023-04-02T01:53:50.698Z,0.51
2023-04-02T01:54:50.727Z,0.51
2023-04-02T01:55:50.751Z,0.51
2023-04-02T01:56:50.801Z,0.52
2023-04-02T01:57:50.807Z,0.51
2023-04-02T01:58:50.841Z,0.51
2023-04-02T01:59:50.860Z,0.51
2023-04-02T02:00:50.946Z,0.51
2023-04-02T02:01:50.940Z,0.51
2023-04-02T02:02:50.995Z,0.51
2023-04-02T02:03:50.978Z,0.51
2023-04-02T02:04:51.036Z,0.51
2023-04-02T02:05:51.039Z,0.51
2023-04-02T02:06:51.077Z,0.51
2023-04-02T02:07:51.098Z,0.51
2023-04-02T02:08:51.133Z,0.51
2023-04-02T02:09:51.172Z,0.51
2023-04-02T02:10:51.203Z,0.51
2023-04-02T02:11:51.237Z,0.51
2023-04-02T02:12:51.263Z,0.51
2023-04-02T02:13:51.291Z,0.51
2023-04-02T02:14:51.327Z,0.51
2023-04-02T02:15:51.352Z,0.51
2023-04-02T02:16:51.386Z,0.51
2023-04-02T02:17:51.466Z,0.50
2023-04-02T02:18:51.458Z,0.51
2023-04-02T02:19:51.489Z,0.51
2023-04-02T02:20:51.557Z,0.50
2023-04-02T02:21:51.573Z,0.51
2023-04-02T02:22:51.587Z,0.51
2023-04-02T02:23:51.623Z,0.51
2023-04-02T02:24:51.656Z,0.51
2023-04-02T02:25:51.703Z,0.51
2023-04-02T02:26:51.717Z,0.51
2023-04-02T02:27:51.785Z,0.51
2023-04-02T02:28:51.799Z,0.51
2023-04-02T02:29:51.837Z,0.51
2023-04-02T02:30:51.875Z,0.51
2023-04-02T02:31:51.949Z,0.51
2023-04-02T02:32:51.983Z,0.51
2023-04-02T02:33:51.969Z,0.50
2023-04-02T02:34:52.007Z,0.50
2023-04-02T02:35:52.073Z,0.51
2023-04-02T02:36:52.091Z,0.51
2023-04-02T02:37:52.108Z,0.51
2023-04-02T02:38:54.236Z,0.51
2023-04-02T02:39:52.124Z,0.52
2023-04-02T02:40:52.143Z,0.52
2023-04-02T02:41:52.118Z,0.51
2023-04-02T02:42:52.130Z,0.51
2023-04-02T02:43:52.107Z,0.52
2023-04-02T02:44:52.110Z,0.51
2023-04-02T02:45:52.133Z,0.51
2023-04-02T02:46:52.098Z,0.51
2023-04-02T02:47:52.157Z,0.51
2023-04-02T02:48:52.125Z,0.51
2023-04-02T02:49:52.088Z,0.52
2023-04-02T02:50:52.094Z,0.51
2023-04-02T02:51:52.094Z,0.51
2023-04-02T02:52:52.117Z,0.51
2023-04-02T02:53:52.090Z,0.51
2023-04-02T02:54:52.093Z,0.51
2023-04-02T02:55:52.087Z,0.51
2023-04-02T02:56:52.113Z,0.51
2023-04-02T02:57:52.096Z,0.51
2023-04-02T02:58:52.097Z,0.51
2023-04-02T02:59:52.096Z,0.51
2023-04-02T03:00:52.091Z,0.52
2023-04-02T03:01:52.096Z,0.51
2023-04-02T03:02:52.284Z,0.51
2023-04-02T03:03:52.253Z,0.51
2023-04-02T03:04:52.078Z,0.51
2023-04-02T03:05:52.102Z,0.52
2023-04-02T03:06:52.076Z,0.51
2023-04-02T03:07:52.101Z,0.51
2023-04-02T03:08:52.102Z,0.52
2023-04-02T03:09:52.058Z,0.51
2023-04-02T03:10:52.053Z,0.52
2023-04-02T03:11:52.059Z,0.51
2023-04-02T03:12:52.036Z,0.51
2023-04-02T03:13:52.042Z,0.51
2023-04-02T03:14:52.033Z,0.52
2023-04-02T03:15:52.110Z,0.52
2023-04-02T03:16:52.036Z,0.52
2023-04-02T03:17:52.069Z,0.50
2023-04-02T03:18:52.039Z,0.52
2023-04-02T03:19:52.036Z,0.51
2023-04-02T03:20:52.036Z,0.51
2023-04-02T03:21:52.026Z,0.52
2023-04-02T03:22:52.012Z,0.51
2023-04-02T03:23:52.046Z,0.51
2023-04-02T03:24:52.059Z,0.51
2023-04-02T03:25:52.055Z,0.51
2023-04-02T03:26:52.095Z,0.51
2023-04-02T03:27:52.124Z,0.51
2023-04-02T03:28:52.160Z,0.51
2023-04-02T03:29:52.210Z,0.51
2023-04-02T03:30:52.292Z,0.51
2023-04-02T03:31:52.285Z,0.51
2023-04-02T03:32:52.325Z,0.51
2023-04-02T03:33:52.342Z,0.51
2023-04-02T03:34:52.379Z,0.51
2023-04-02T03:35:52.459Z,0.50
2023-04-02T03:36:52.462Z,0.50
2023-04-02T03:37:52.516Z,0.50
2023-04-02T03:38:52.553Z,0.51
2023-04-02T03:39:52.585Z,0.51
2023-04-02T03:40:52.640Z,0.51
2023-04-02T03:41:52.649Z,0.50
2023-04-02T03:42:52.696Z,0.50
2023-04-02T03:43:52.753Z,0.51
2023-04-02T03:44:52.779Z,0.51
2023-04-02T03:45:52.807Z,0.51
2023-04-02T03:46:52.911Z,0.51
2023-04-02T03:47:52.909Z,0.51
2023-04-02T03:48:52.908Z,0.51
2023-04-02T03:49:52.942Z,0.51
2023-04-02T03:50:52.987Z,0.50
2023-04-02T03:51:53.030Z,0.51
2023-04-02T03:52:53.066Z,0.51
2023-04-02T03:53:53.102Z,0.51
2023-04-02T03:54:54.519Z,0.51
2023-04-02T03:55:53.218Z,0.51
2023-04-02T03:56:53.333Z,0.51
2023-04-02T03:57:53.297Z,0.51
2023-04-02T03:58:53.341Z,0.51
2023-04-02T03:59:53.396Z,0.51
2023-04-02T04:00:53.422Z,0.52
2023-04-02T04:01:53.511Z,0.51
2023-04-02T04:02:53.532Z,0.51
2023-04-02T04:03:53.568Z,0.51
2023-04-02T04:04:53.575Z,0.51
2023-04-02T04:05:53.624Z,0.51
2023-04-02T04:06:53.652Z,0.51
2023-04-02T04:07:53.698Z,0.51
2023-04-02T04:08:53.731Z,0.51
2023-04-02T04:09:53.766Z,0.51
2023-04-02T04:10:53.852Z,0.51
2023-04-02T04:11:53.844Z,0.51
2023-04-02T04:12:53.910Z,0.51
2023-04-02T04:13:53.927Z,0.50
2023-04-02T04:14:53.957Z,0.51
2023-04-02T04:15:53.988Z,0.51
2023-04-02T04:16:54.226Z,0.51
2023-04-02T04:17:54.231Z,0.50
2023-04-02T04:18:54.102Z,0.51
2023-04-02T04:19:54.153Z,0.51
2023-04-02T04:20:54.188Z,0.51
2023-04-02T04:21:54.229Z,0.52
2023-04-02T04:22:54.273Z,0.51
2023-04-02T04:23:54.316Z,0.51
2023-04-02T04:24:54.378Z,0.50
2023-04-02T04:25:54.382Z,0.51
2023-04-02T04:26:54.423Z,0.50
2023-04-02T04:27:54.461Z,0.50
2023-04-02T04:28:54.534Z,0.51
2023-04-02T04:29:54.549Z,0.50
2023-04-02T04:30:54.581Z,0.51
2023-04-02T04:31:54.620Z,0.51
2023-04-02T04:32:54.692Z,0.50
2023-04-02T04:33:54.688Z,0.51
2023-04-02T04:34:54.722Z,0.51
2023-04-02T04:35:54.811Z,0.51
2023-04-02T04:36:54.859Z,0.51
2023-04-02T04:37:54.845Z,0.51
2023-04-02T04:38:54.887Z,0.51
2023-04-02T04:39:54.934Z,0.51
2023-04-02T04:40:54.971Z,0.51
2023-04-02T04:41:55.005Z,0.51
2023-04-02T04:42:55.070Z,0.50
2023-04-02T04:43:55.094Z,0.51
2023-04-02T04:44:55.162Z,0.50
2023-04-02T04:45:55.223Z,0.50
2023-04-02T04:46:55.240Z,0.51
2023-04-02T04:47:55.290Z,0.51
2023-04-02T04:48:55.329Z,0.51
2023-04-02T04:49:55.369Z,0.50
2023-04-02T04:50:55.425Z,0.51
2023-04-02T04:51:55.469Z,0.51
2023-04-02T04:52:55.513Z,0.51
2023-04-02T04:53:55.560Z,0.51
2023-04-02T04:54:55.602Z,0.51
2023-04-02T04:55:58.285Z,0.51
2023-04-02T04:56:55.676Z,0.52
2023-04-02T04:57:55.641Z,0.52
2023-04-02T04:58:55.646Z,0.51
2023-04-02T04:59:55.655Z,0.52
2023-04-02T05:00:55.688Z,0.52
2023-04-02T05:01:55.724Z,0.51
2023-04-02T05:02:55.703Z,0.51
2023-04-02T05:03:55.621Z,0.52
2023-04-02T05:04:55.649Z,0.52
2023-04-02T05:05:55.624Z,0.52
2023-04-02T05:06:55.625Z,0.51
2023-04-02T05:07:57.013Z,0.51
2023-04-02T05:08:55.612Z,0.51
2023-04-02T05:09:55.609Z,0.51
2023-04-02T05:10:55.590Z,0.52
2023-04-02T05:11:55.596Z,0.52
2023-04-02T05:12:55.596Z,0.52
2023-04-02T05:13:55.610Z,0.52
2023-04-02T05:14:55.614Z,0.52
2023-04-02T05:15:55.639Z,0.52
2023-04-02T05:16:55.621Z,0.51
2023-04-02T05:17:55.617Z,0.51
2023-04-02T05:18:55.619Z,0.51
2023-04-02T05:19:55.620Z,0.51
2023-04-02T05:20:55.624Z,0.51
2023-04-02T05:21:55.644Z,0.52
2023-04-02T05:22:55.653Z,0.51
2023-04-02T05:23:55.643Z,0.50
2023-04-02T05:24:55.634Z,0.50
2023-04-02T05:25:55.631Z,0.50
2023-04-02T05:26:55.629Z,0.50
2023-04-02T05:27:55.636Z,0.50
2023-04-02T05:28:55.639Z,0.50
2023-04-02T05:29:55.641Z,0.51
2023-04-02T05:30:55.697Z,0.50
2023-04-02T05:31:55.641Z,0.50
2023-04-02T05:32:55.702Z,0.50
2023-04-02T05:33:55.639Z,0.51
2023-04-02T05:34:55.648Z,0.51
2023-04-02T05:35:55.691Z,0.50
2023-04-02T05:36:55.706Z,0.50
2023-04-02T05:37:55.659Z,0.51
2023-04-02T05:38:55.677Z,0.51
2023-04-02T05:39:55.724Z,0.51
2023-04-02T05:40:55.783Z,0.51
2023-04-02T05:41:55.838Z,0.51
2023-04-02T05:42:55.902Z,0.51
2023-04-02T05:43:55.969Z,0.51
2023-04-02T05:44:56.030Z,0.51
2023-04-02T05:45:56.098Z,0.51
2023-04-02T05:46:56.214Z,0.50
2023-04-02T05:47:56.246Z,0.50
2023-04-02T05:48:56.306Z,0.51
2023-04-02T05:49:56.337Z,0.51
2023-04-02T05:50:56.408Z,0.50
2023-04-02T05:51:57.599Z,0.51
2023-04-02T05:52:56.524Z,0.51
2023-04-02T05:53:56.569Z,0.50
2023-04-02T05:54:56.622Z,0.51
2023-04-02T05:55:56.686Z,0.50
2023-04-02T05:56:56.745Z,0.51
2023-04-02T05:58:17.675Z,0.51
2023-04-02T05:58:56.885Z,0.51
2023-04-02T05:59:56.814Z,0.51
2023-04-02T06:00:56.819Z,0.51
2023-04-02T06:01:56.842Z,0.51
2023-04-02T06:02:56.909Z,0.51
2023-04-02T06:03:56.887Z,0.51
2023-04-02T06:04:56.851Z,0.51
2023-04-02T06:05:56.804Z,0.51
2023-04-02T06:06:56.809Z,0.51
2023-04-02T06:07:56.825Z,0.50
2023-04-02T06:08:56.825Z,0.50
2023-04-02T06:09:56.826Z,0.51
2023-04-02T06:10:56.836Z,0.51
2023-04-02T06:11:56.845Z,0.51
2023-04-02T06:12:56.837Z,0.51
2023-04-02T06:13:56.846Z,0.51
2023-04-02T06:14:56.840Z,0.51
2023-04-02T06:15:56.852Z,0.51
2023-04-02T06:16:56.929Z,0.51
2023-04-02T06:17:56.882Z,0.51
2023-04-02T06:18:56.856Z,0.50
2023-04-02T06:19:56.854Z,0.50
2023-04-02T06:20:56.886Z,0.51
2023-04-02T06:21:56.863Z,0.51
2023-04-02T06:22:56.884Z,0.51
2023-04-02T06:23:56.879Z,0.51
2023-04-02T06:24:56.867Z,0.51
2023-04-02T06:25:56.868Z,0.51
2023-04-02T06:26:56.880Z,0.51
2023-04-02T06:27:56.914Z,0.51
2023-04-02T06:28:57.019Z,0.51
2023-04-02T06:29:57.024Z,0.51
2023-04-02T06:30:57.089Z,0.51
2023-04-02T06:31:57.130Z,0.51
2023-04-02T06:32:57.194Z,0.51
2023-04-02T06:33:57.216Z,0.51
2023-04-02T06:34:57.269Z,0.51
2023-04-02T06:35:57.329Z,0.51
2023-04-02T06:36:57.411Z,0.51
2023-04-02T06:37:57.433Z,0.51
2023-04-02T06:38:57.472Z,0.51
2023-04-02T06:39:57.515Z,0.51
2023-04-02T06:40:58.764Z,0.50
2023-04-02T06:41:57.652Z,0.50
2023-04-02T06:42:57.703Z,0.51
2023-04-02T06:43:57.747Z,0.51
2023-04-02T06:44:57.797Z,0.51
2023-04-02T06:45:57.876Z,0.51
2023-04-02T06:46:57.884Z,0.50
2023-04-02T06:47:57.943Z,0.50
2023-04-02T06:48:57.994Z,0.51
2023-04-02T06:49:58.033Z,0.51
2023-04-02T06:50:58.083Z,0.51
2023-04-02T06:51:58.146Z,0.50
2023-04-02T06:52:58.206Z,0.51
2023-04-02T06:53:58.215Z,0.50
2023-04-02T06:54:58.367Z,0.51
2023-04-02T06:55:58.312Z,0.51
2023-04-02T06:56:58.392Z,0.51
2023-04-02T06:57:58.423Z,0.50
2023-04-02T06:58:58.463Z,0.51
2023-04-02T06:59:58.525Z,0.51
2023-04-02T07:00:58.567Z,0.51
2023-04-02T07:01:58.679Z,0.51
2023-04-02T07:02:58.709Z,0.51
2023-04-02T07:03:58.705Z,0.51
2023-04-02T07:04:58.811Z,0.51
2023-04-02T07:05:58.800Z,0.51
2023-04-02T07:06:58.842Z,0.51
2023-04-02T07:07:58.893Z,0.51
2023-04-02T07:08:58.954Z,0.51
2023-04-02T07:09:58.969Z,0.50
2023-04-02T07:10:59.019Z,0.51
2023-04-02T07:11:59.071Z,0.51
2023-04-02T07:12:59.117Z,0.51
2023-04-02T07:13:59.162Z,0.51
2023-04-02T07:14:59.214Z,0.51
2023-04-02T07:15:59.289Z,0.51
2023-04-02T07:16:59.298Z,0.51
2023-04-02T07:17:59.437Z,0.51
2023-04-02T07:18:59.397Z,0.51
2023-04-02T07:19:59.446Z,0.51
2023-04-02T07:20:59.512Z,0.50
2023-04-02T07:21:59.548Z,0.51
2023-04-02T07:22:59.588Z,0.51
2023-04-02T07:23:59.638Z,0.51
2023-04-02T07:24:59.719Z,0.51
2023-04-02T07:25:59.732Z,0.51
2023-04-02T07:26:59.783Z,0.51
2023-04-02T07:27:59.829Z,0.51
2023-04-02T07:28:59.879Z,0.51
2023-04-02T07:29:59.917Z,0.51
2023-04-02T07:30:59.963Z,0.51
2023-04-02T07:31:59.993Z,0.50
2023-04-02T07:33:00.104Z,0.51
2023-04-02T07:34:00.211Z,0.51
2023-04-02T07:35:00.121Z,0.50
2023-04-02T07:36:00.229Z,0.51
2023-04-02T07:37:00.197Z,0.51
2023-04-02T07:38:00.281Z,0.50
2023-04-02T07:39:00.280Z,0.50
2023-04-02T07:40:00.331Z,0.51
2023-04-02T07:41:00.390Z,0.50
2023-04-02T07:42:00.405Z,0.51
2023-04-02T07:43:00.447Z,0.51
2023-04-02T07:44:00.489Z,0.51
2023-04-02T07:45:00.514Z,0.51
2023-04-02T07:46:00.569Z,0.50
2023-04-02T07:47:59.713Z,0.51
2023-04-02T07:49:00.739Z,0.51
2023-04-02T07:50:00.753Z,0.52
2023-04-02T07:51:00.763Z,0.51
2023-04-02T07:52:00.812Z,0.51
2023-04-02T07:53:00.852Z,0.51
2023-04-02T07:54:00.884Z,0.52
2023-04-02T07:55:00.925Z,0.51
2023-04-02T07:56:00.959Z,0.52
2023-04-02T07:57:01.064Z,0.51
2023-04-02T07:58:01.054Z,0.51
2023-04-02T07:59:01.101Z,0.51
2023-04-02T08:00:01.144Z,0.52
2023-04-02T08:01:01.202Z,0.52
2023-04-02T08:02:01.248Z,0.52
2023-04-02T08:03:01.287Z,0.51
2023-04-02T08:04:01.315Z,0.51
2023-04-02T08:05:01.349Z,0.51
2023-04-02T08:06:01.386Z,0.50
2023-04-02T08:07:01.411Z,0.51
2023-04-02T08:08:01.464Z,0.51
2023-04-02T08:09:01.503Z,0.51
2023-04-02T08:10:01.563Z,0.50
2023-04-02T08:11:01.604Z,0.51
2023-04-02T08:12:01.639Z,0.51
2023-04-02T08:13:01.711Z,0.50
2023-04-02T08:14:01.719Z,0.50
2023-04-02T08:15:01.764Z,0.51
2023-04-02T08:16:01.804Z,0.51
2023-04-02T08:17:01.878Z,0.51
2023-04-02T08:18:01.934Z,0.51
2023-04-02T08:19:01.924Z,0.51
2023-04-02T08:20:01.967Z,0.51
2023-04-02T08:21:02.005Z,0.52
2023-04-02T08:22:02.034Z,0.51
2023-04-02T08:23:02.071Z,0.51
2023-04-02T08:24:02.126Z,0.51
2023-04-02T08:25:02.216Z,0.52
2023-04-02T08:26:02.190Z,0.51
2023-04-02T08:27:02.231Z,0.51
2023-04-02T08:28:02.267Z,0.51
2023-04-02T08:29:02.329Z,0.52
2023-04-02T08:30:02.359Z,0.51
2023-04-02T08:31:02.452Z,0.52
2023-04-02T08:32:02.419Z,0.51
2023-04-02T08:33:02.503Z,0.52
2023-04-02T08:34:02.491Z,0.51
2023-04-02T08:35:03.204Z,0.51
2023-04-02T08:36:02.592Z,0.52
2023-04-02T08:37:02.626Z,0.51
2023-04-02T08:38:02.661Z,0.52
2023-04-02T08:39:02.687Z,0.51
2023-04-02T08:40:02.724Z,0.52
2023-04-02T08:41:02.764Z,0.51
2023-04-02T08:42:02.813Z,0.51
2023-04-02T08:43:02.849Z,0.51
2023-04-02T08:44:02.888Z,0.52
2023-04-02T08:45:10.917Z,0.52
2023-04-02T08:46:02.941Z,0.52
2023-04-02T08:47:02.903Z,0.52
2023-04-02T08:48:03.140Z,0.52
2023-04-02T08:49:02.919Z,0.53
2023-04-02T08:50:02.917Z,0.52
2023-04-02T08:51:02.896Z,0.52
2023-04-02T08:52:02.898Z,0.52
2023-04-02T08:53:02.883Z,0.52
2023-04-02T08:54:02.870Z,0.52
2023-04-02T08:55:02.877Z,0.51
2023-04-02T08:56:02.855Z,0.52
2023-04-02T08:57:02.990Z,0.52
2023-04-02T08:58:02.914Z,0.52
2023-04-02T08:59:02.842Z,0.52
2023-04-02T09:00:02.826Z,0.51
2023-04-02T09:01:02.839Z,0.51
2023-04-02T09:02:02.862Z,0.52
2023-04-02T09:03:02.863Z,0.52
2023-04-02T09:04:02.790Z,0.52
2023-04-02T09:05:02.829Z,0.51
2023-04-02T09:06:02.822Z,0.51
2023-04-02T09:07:02.762Z,0.51
2023-04-02T09:08:02.767Z,0.52
2023-04-02T09:09:02.763Z,0.51
2023-04-02T09:10:02.814Z,0.51
2023-04-02T09:11:02.846Z,0.52
2023-04-02T09:12:02.889Z,0.51
2023-04-02T09:13:02.944Z,0.50
2023-04-02T09:14:02.983Z,0.51
2023-04-02T09:15:03.032Z,0.51
2023-04-02T09:16:03.059Z,0.51
2023-04-02T09:17:03.137Z,0.51
2023-04-02T09:18:03.175Z,0.51
2023-04-02T09:19:03.188Z,0.51
2023-04-02T09:20:03.242Z,0.52
2023-04-02T09:21:03.308Z,0.51
2023-04-02T09:22:03.302Z,0.51
2023-04-02T09:23:03.340Z,0.51
2023-04-02T09:24:04.720Z,0.51
2023-04-02T09:25:03.380Z,0.51
2023-04-02T09:26:04.837Z,0.53
2023-04-02T09:27:03.575Z,0.53
2023-04-02T09:28:03.577Z,0.52
2023-04-02T09:29:03.596Z,0.51
2023-04-02T09:30:03.629Z,0.51
2023-04-02T09:31:05.515Z,0.51
2023-04-02T09:32:03.679Z,0.52
2023-04-02T09:33:03.679Z,0.52
2023-04-02T09:34:03.642Z,0.51
2023-04-02T09:35:09.635Z,0.51
2023-04-02T09:36:03.631Z,0.53
2023-04-02T09:37:03.623Z,0.53
2023-04-02T09:38:03.633Z,0.53
2023-04-02T09:39:03.626Z,0.52
2023-04-02T09:40:03.633Z,0.52
2023-04-02T09:41:03.620Z,0.51
2023-04-02T09:42:05.748Z,0.51
2023-04-02T09:43:03.604Z,0.51
2023-04-02T09:44:03.597Z,0.51
2023-04-02T09:45:03.594Z,0.50
2023-04-02T09:46:03.591Z,0.50
2023-04-02T09:47:03.682Z,0.50
2023-04-02T09:48:03.624Z,0.50
2023-04-02T09:49:03.609Z,0.50
2023-04-02T09:50:03.575Z,0.50
2023-04-02T09:51:03.562Z,0.50
2023-04-02T09:52:03.551Z,0.51
2023-04-02T09:53:03.549Z,0.50
2023-04-02T09:54:03.556Z,0.51
2023-04-02T09:55:03.525Z,0.51
2023-04-02T09:56:03.514Z,0.50
2023-04-02T09:57:03.537Z,0.51
2023-04-02T09:58:03.501Z,0.51
2023-04-02T09:59:03.507Z,0.51
2023-04-02T10:00:03.486Z,0.51
2023-04-02T10:01:03.536Z,0.51
2023-04-02T10:02:03.501Z,0.51
2023-04-02T10:03:03.523Z,0.52
2023-04-02T10:04:03.564Z,0.51
2023-04-02T10:05:03.472Z,0.51
2023-04-02T10:06:03.416Z,0.51
2023-04-02T10:07:03.402Z,0.50
2023-04-02T10:08:03.399Z,0.51
2023-04-02T10:09:03.406Z,0.51
2023-04-02T10:10:03.406Z,0.51
2023-04-02T10:11:03.412Z,0.52
2023-04-02T10:12:03.403Z,0.52
2023-04-02T10:13:03.384Z,0.52
2023-04-02T10:14:03.370Z,0.51
2023-04-02T10:15:03.374Z,0.51
2023-04-02T10:16:03.370Z,0.51
2023-04-02T10:17:03.436Z,0.51
2023-04-02T10:18:03.421Z,0.51
2023-04-02T10:19:03.358Z,0.52
2023-04-02T10:20:03.347Z,0.51
2023-04-02T10:21:03.385Z,0.52
2023-04-02T10:22:03.352Z,0.51
2023-04-02T10:23:05.381Z,0.51
2023-04-02T10:24:03.332Z,0.51
2023-04-02T10:25:03.350Z,0.51
2023-04-02T10:26:03.323Z,0.51
2023-04-02T10:27:03.317Z,0.51
2023-04-02T10:28:03.319Z,0.52
2023-04-02T10:29:05.020Z,0.52
2023-04-02T10:30:03.313Z,0.52
2023-04-02T10:31:03.357Z,0.52
2023-04-02T10:32:03.312Z,0.52
2023-04-02T10:33:03.398Z,0.53
2023-04-02T10:34:03.317Z,0.52
2023-04-02T10:35:03.317Z,0.52
2023-04-02T10:36:03.344Z,0.54
2023-04-02T10:37:03.360Z,0.53
2023-04-02T10:38:03.343Z,0.53
2023-04-02T10:39:03.326Z,0.52
2023-04-02T10:40:03.315Z,0.53
2023-04-02T10:41:03.319Z,0.53
2023-04-02T10:42:03.321Z,0.53
2023-04-02T10:43:03.337Z,0.53
2023-04-02T10:44:13.182Z,0.53
2023-04-02T10:45:03.364Z,0.53
2023-04-02T10:46:03.446Z,0.53
2023-04-02T10:47:03.342Z,0.54
2023-04-02T10:48:03.408Z,0.54
2023-04-02T10:49:03.411Z,0.54
2023-04-02T10:50:03.330Z,0.54
2023-04-02T10:51:03.348Z,0.54
2023-04-02T10:52:03.375Z,0.55
2023-04-02T10:53:03.379Z,0.54
2023-04-02T10:54:03.355Z,0.55
2023-04-02T10:55:03.352Z,0.56
2023-04-02T10:56:03.383Z,0.55
2023-04-02T10:57:03.400Z,0.56
2023-04-02T10:58:03.374Z,0.55
2023-04-02T10:59:03.379Z,0.56
2023-04-02T11:00:03.379Z,0.57
2023-04-02T11:01:03.380Z,0.57
2023-04-02T11:02:03.395Z,0.57
2023-04-02T11:03:03.425Z,0.56
2023-04-02T11:04:03.392Z,0.56
2023-04-02T11:05:03.397Z,0.57
2023-04-02T11:06:03.394Z,0.58
2023-04-02T11:07:13.296Z,0.57
2023-04-02T11:08:03.400Z,0.57
2023-04-02T11:09:03.406Z,0.58
2023-04-02T11:10:03.377Z,0.58
2023-04-02T11:11:04.633Z,0.58
2023-04-02T11:12:03.373Z,0.60
2023-04-02T11:13:03.369Z,0.58
2023-04-02T11:14:03.371Z,0.58
2023-04-02T11:15:03.396Z,0.58
2023-04-02T11:16:03.400Z,0.58
2023-04-02T11:17:03.419Z,0.59
2023-04-02T11:18:03.446Z,0.58
2023-04-02T11:19:03.432Z,0.57
2023-04-02T11:20:03.455Z,0.57
2023-04-02T11:21:03.490Z,0.57
2023-04-02T11:22:06.545Z,0.58
2023-04-02T11:23:03.475Z,0.58
2023-04-02T11:24:03.466Z,0.58
2023-04-02T11:25:03.490Z,0.58
2023-04-02T11:26:03.453Z,0.57
2023-04-02T11:27:03.461Z,0.59
2023-04-02T11:28:03.456Z,0.59
2023-04-02T11:29:03.468Z,0.59
2023-04-02T11:30:03.445Z,0.59
2023-04-02T11:31:03.441Z,0.58
2023-04-02T11:32:03.422Z,0.58
2023-04-02T11:33:03.450Z,0.59
2023-04-02T11:34:03.411Z,0.59
2023-04-02T11:35:07.569Z,0.59
2023-04-02T11:36:03.455Z,0.59
2023-04-02T11:37:03.415Z,0.59
2023-04-02T11:38:03.432Z,0.59
2023-04-02T11:39:14.577Z,0.59
2023-04-02T11:40:03.455Z,0.59
2023-04-02T11:41:03.468Z,0.60
2023-04-02T11:42:03.442Z,0.60
2023-04-02T11:43:03.445Z,0.60
2023-04-02T11:44:03.442Z,0.59
2023-04-02T11:45:03.454Z,0.60
2023-04-02T11:46:03.439Z,0.61
2023-04-02T11:47:03.502Z,0.60
2023-04-02T11:48:03.462Z,0.59
2023-04-02T11:49:03.431Z,0.59
2023-04-02T11:50:03.432Z,0.60
2023-04-02T11:51:03.446Z,0.60
2023-04-02T11:52:11.799Z,0.59
2023-04-02T11:53:03.458Z,0.59
2023-04-02T11:54:03.493Z,0.59
2023-04-02T11:55:03.444Z,0.60
2023-04-02T11:56:03.438Z,0.59
2023-04-02T11:57:03.540Z,0.61
2023-04-02T11:58:03.459Z,0.61
2023-04-02T11:59:03.458Z,0.61
2023-04-02T12:00:03.458Z,0.60
2023-04-02T12:01:03.458Z,0.60
2023-04-02T12:02:03.474Z,0.59
2023-04-02T12:03:03.513Z,0.60
2023-04-02T12:04:03.461Z,0.59
2023-04-02T12:05:03.574Z,0.60
2023-04-02T12:06:04.346Z,0.61
2023-04-02T12:07:03.476Z,0.61
2023-04-02T12:08:03.455Z,0.61
2023-04-02T12:09:03.451Z,0.59
2023-04-02T12:10:03.445Z,0.60
2023-04-02T12:11:03.442Z,0.61
2023-04-02T12:12:03.448Z,0.60
2023-04-02T12:13:03.469Z,0.59
2023-04-02T12:14:03.458Z,0.61
2023-04-02T12:15:03.462Z,0.59
2023-04-02T12:16:03.436Z,0.60
2023-04-02T12:17:03.467Z,0.61
2023-04-02T12:18:03.507Z,0.60
2023-04-02T12:19:03.453Z,0.59
2023-04-02T12:20:05.702Z,0.59
2023-04-02T12:21:03.458Z,0.60
2023-04-02T12:22:03.468Z,0.60
2023-04-02T12:23:03.466Z,0.60
2023-04-02T12:24:03.463Z,0.59
2023-04-02T12:25:03.455Z,0.58
2023-04-02T12:26:03.461Z,0.58
2023-04-02T12:27:03.452Z,0.59
2023-04-02T12:28:03.445Z,0.59
2023-04-02T12:29:03.454Z,0.59
2023-04-02T12:30:03.429Z,0.58
2023-04-02T12:31:03.573Z,0.59
2023-04-02T12:32:03.448Z,0.58
2023-04-02T12:33:03.479Z,0.58
2023-04-02T12:34:03.432Z,0.59
2023-04-02T12:35:03.434Z,0.60
2023-04-02T12:36:03.493Z,0.59
2023-04-02T12:37:03.444Z,0.61
2023-04-02T12:38:03.437Z,0.60
2023-04-02T12:39:03.451Z,0.59
2023-04-02T12:40:03.444Z,0.59
2023-04-02T12:41:03.449Z,0.58
2023-04-02T12:42:03.445Z,0.59
2023-04-02T12:43:03.450Z,0.58
2023-04-02T12:44:03.465Z,0.59
2023-04-02T12:45:03.501Z,0.60
2023-04-02T12:46:03.491Z,0.59
2023-04-02T12:47:03.468Z,0.58
2023-04-02T12:48:03.516Z,0.58
2023-04-02T12:49:03.480Z,0.58
2023-04-02T12:50:03.494Z,0.59
2023-04-02T12:51:03.480Z,0.58
2023-04-02T12:52:03.480Z,0.59
2023-04-02T12:53:03.458Z,0.60
2023-04-02T12:54:03.443Z,0.59
2023-04-02T12:55:03.439Z,0.58
2023-04-02T12:56:03.421Z,0.58
2023-04-02T12:57:03.443Z,0.60
2023-04-02T12:58:03.398Z,0.59
2023-04-02T12:59:03.421Z,0.59
2023-04-02T13:00:03.401Z,0.58
2023-04-02T13:01:03.418Z,0.58
2023-04-02T13:02:03.478Z,0.58
2023-04-02T13:03:03.429Z,0.58
2023-04-02T13:04:03.430Z,0.59
2023-04-02T13:05:03.413Z,0.59
2023-04-02T13:06:03.370Z,0.59
2023-04-02T13:07:03.370Z,0.59
2023-04-02T13:08:03.352Z,0.58
2023-04-02T13:09:03.351Z,0.58
2023-04-02T13:10:03.330Z,0.58
2023-04-02T13:11:03.321Z,0.60
2023-04-02T13:12:03.362Z,0.60
2023-04-02T13:13:03.332Z,0.59
2023-04-02T13:14:03.343Z,0.61
2023-04-02T13:15:03.354Z,0.59
2023-04-02T13:16:03.339Z,0.60
2023-04-02T13:17:03.337Z,0.60
2023-04-02T13:18:03.334Z,0.60
2023-04-02T13:19:03.289Z,0.60
2023-04-02T13:20:03.288Z,0.61